Terminal Aerodrome Forecast
Issued by NWS

Home | Current Version | Previous Version | Text Only | Print | Product List | Glossary On
Versions: 1 2 3 4 5 6 7 8 9 10 11 12 13 14 15 16 17 18 19 20 21 22
000
FTUS44 KSJT 302300
TAFJCT
TAF
KJCT 302320Z 3100/3124 VRB05KT P6SM SCT070
     FM310100 VRB05KT P6SM VCTS BKN035CB
     FM310600 04005KT P6SM OVC025
     FM311200 05007KT P6SM SKC=

USA.gov is the U.S. government's official web portal to all federal, state and local government web resources and services.